createdAt,value
2023-03-18T00:00:30.371Z,99151.00
2023-03-18T00:02:57.328Z,99149.56
2023-03-18T00:05:24.738Z,99160.88
2023-03-18T00:07:51.373Z,99156.56
2023-03-18T00:10:18.979Z,99164.78
2023-03-18T00:12:45.697Z,99162.91
2023-03-18T00:15:13.965Z,99162.88
2023-03-18T00:17:41.404Z,99175.88
2023-03-18T00:20:09.721Z,99181.63
2023-03-18T00:22:40.834Z,99175.78
2023-03-18T00:25:09.724Z,99173.91
2023-03-18T00:27:36.900Z,99177.44
2023-03-18T00:30:05.740Z,99167.56
2023-03-18T00:32:33.217Z,99181.53
2023-03-18T00:37:31.637Z,99179.88
2023-03-18T00:40:03.389Z,99184.41
2023-03-18T00:42:37.240Z,99184.59
2023-03-18T00:45:06.357Z,99193.13
2023-03-18T00:47:33.993Z,99200.38
2023-03-18T00:52:27.830Z,99192.25
2023-03-18T00:54:54.628Z,99188.50
2023-03-18T00:57:25.253Z,99195.84
2023-03-18T00:59:52.059Z,99197.84
2023-03-18T01:02:19.425Z,99195.84
2023-03-18T01:04:46.350Z,99196.84
2023-03-18T01:07:13.620Z,99197.31
2023-03-18T01:09:40.965Z,99197.94
2023-03-18T01:12:09.729Z,99202.28
2023-03-18T01:14:38.360Z,99199.66
2023-03-18T01:17:07.445Z,99199.06
2023-03-18T01:19:34.872Z,99195.78
2023-03-18T01:22:03.841Z,99198.06
2023-03-18T01:24:30.881Z,99199.25
2023-03-18T01:26:58.286Z,99194.25
2023-03-18T01:29:25.424Z,99191.34
2023-03-18T01:31:52.435Z,99200.19
2023-03-18T01:34:19.442Z,99203.72
2023-03-18T01:36:46.641Z,99200.03
2023-03-18T01:39:15.633Z,99198.38
2023-03-18T01:41:42.467Z,99200.91
2023-03-18T01:44:19.299Z,99207.47
2023-03-18T01:46:47.876Z,99205.44
2023-03-18T01:49:33.186Z,99204.22
2023-03-18T01:52:05.492Z,99196.97
2023-03-18T01:54:38.076Z,99204.19
2023-03-18T01:57:05.125Z,99205.00
2023-03-18T01:59:34.165Z,99203.34
2023-03-18T02:02:03.372Z,99204.19
2023-03-18T02:04:36.639Z,99211.78
2023-03-18T02:07:04.339Z,99198.00
2023-03-18T02:09:31.990Z,99208.69
2023-03-18T02:14:33.324Z,99202.91
2023-03-18T02:17:03.574Z,99203.31
2023-03-18T02:19:46.933Z,99209.88
2023-03-18T02:22:24.733Z,99216.44
2023-03-18T02:25:02.398Z,99214.00
2023-03-18T02:27:33.925Z,99216.28
2023-03-18T02:30:03.297Z,99218.19
2023-03-18T02:32:33.542Z,99214.44
2023-03-18T02:35:03.341Z,99218.56
2023-03-18T02:37:29.999Z,99219.34
2023-03-18T02:40:02.379Z,99216.50
2023-03-18T02:42:34.796Z,99221.22
2023-03-18T02:47:28.875Z,99226.38
2023-03-18T02:49:56.943Z,99222.66
2023-03-18T02:52:24.764Z,99219.56
2023-03-18T02:54:52.309Z,99224.13
2023-03-18T02:57:19.130Z,99229.34
2023-03-18T02:59:46.700Z,99221.06
2023-03-18T03:02:13.441Z,99231.38
2023-03-18T03:04:41.143Z,99232.81
2023-03-18T03:07:12.678Z,99233.41
2023-03-18T03:09:39.455Z,99231.78
2023-03-18T03:12:06.805Z,99230.94
2023-03-18T03:14:33.599Z,99234.44
2023-03-18T03:17:00.454Z,99233.41
2023-03-18T03:19:27.175Z,99242.72
2023-03-18T03:21:53.864Z,99242.50
2023-03-18T03:24:20.542Z,99242.72
2023-03-18T03:26:48.158Z,99242.06
2023-03-18T03:29:14.852Z,99241.59
2023-03-18T03:31:41.885Z,99245.50
2023-03-18T03:34:09.200Z,99241.13
2023-03-18T03:36:36.061Z,99244.00
2023-03-18T03:39:03.447Z,99248.06
2023-03-18T03:41:30.266Z,99251.81
2023-03-18T03:43:56.958Z,99252.66
2023-03-18T03:46:23.679Z,99253.44
2023-03-18T03:48:50.577Z,99248.31
2023-03-18T03:51:17.448Z,99246.91
2023-03-18T03:53:46.381Z,99250.22
2023-03-18T03:56:13.220Z,99250.84
2023-03-18T03:58:40.326Z,99254.78
2023-03-18T04:01:08.746Z,99255.09
2023-03-18T04:03:35.753Z,99250.53
2023-03-18T04:06:03.446Z,99254.88
2023-03-18T04:08:30.235Z,99258.94
2023-03-18T04:11:00.169Z,99262.72
2023-03-18T04:13:26.921Z,99270.50
2023-03-18T04:15:53.584Z,99268.28
2023-03-18T04:18:20.392Z,99271.31
2023-03-18T04:20:48.050Z,99276.09
2023-03-18T04:23:14.810Z,99273.59
2023-03-18T04:25:44.747Z,99280.44
2023-03-18T04:28:11.493Z,99277.19
2023-03-18T04:30:38.213Z,99270.75
2023-03-18T04:33:05.195Z,99283.38
2023-03-18T04:35:32.429Z,99278.19
2023-03-18T04:37:59.179Z,99280.44
2023-03-18T04:40:26.252Z,99293.44
2023-03-18T04:42:53.446Z,99291.16
2023-03-18T04:45:20.758Z,99279.66
2023-03-18T04:47:48.234Z,99277.38
2023-03-18T04:50:17.935Z,99270.81
2023-03-18T04:52:45.302Z,99270.22
2023-03-18T04:55:14.266Z,99265.75
2023-03-18T04:57:42.794Z,99276.28
2023-03-18T05:00:12.822Z,99280.38
2023-03-18T05:02:39.715Z,99274.81
2023-03-18T05:05:07.909Z,99283.50
2023-03-18T05:07:34.984Z,99283.47
2023-03-18T05:12:28.241Z,99272.16
2023-03-18T05:14:54.970Z,99273.63
2023-03-18T05:17:21.692Z,99270.38
2023-03-18T05:19:49.234Z,99276.53
2023-03-18T05:22:18.233Z,99272.47
2023-03-18T05:24:48.723Z,99277.38
2023-03-18T05:27:18.489Z,99271.13
2023-03-18T05:29:45.824Z,99275.47
2023-03-18T05:32:14.843Z,99276.09
2023-03-18T05:34:42.809Z,99281.91
2023-03-18T05:37:12.455Z,99281.72
2023-03-18T05:39:39.235Z,99284.00
2023-03-18T05:42:06.556Z,99291.00
2023-03-18T05:44:35.512Z,99293.03
2023-03-18T05:49:27.932Z,99289.75
2023-03-18T05:51:58.269Z,99289.34
2023-03-18T05:54:25.883Z,99283.16
2023-03-18T05:56:52.952Z,99286.97
2023-03-18T05:59:20.463Z,99283.84
2023-03-18T06:01:47.751Z,99295.09
2023-03-18T06:04:15.526Z,99293.97
2023-03-18T06:06:42.300Z,99288.19
2023-03-18T06:09:10.980Z,99292.03
2023-03-18T06:11:39.075Z,99291.22
2023-03-18T06:14:07.907Z,99301.16
2023-03-18T06:16:35.850Z,99298.47
2023-03-18T06:19:02.541Z,99294.19
2023-03-18T06:21:31.729Z,99290.44
2023-03-18T06:23:58.914Z,99292.09
2023-03-18T06:26:25.804Z,99300.72
2023-03-18T06:28:52.784Z,99299.00
2023-03-18T06:31:20.023Z,99297.75
2023-03-18T06:33:47.580Z,99299.75
2023-03-18T06:36:16.772Z,99299.75
2023-03-18T06:38:45.154Z,99308.25
2023-03-18T06:41:12.406Z,99309.28
2023-03-18T06:43:48.017Z,99304.38
2023-03-18T06:46:14.923Z,99301.50
2023-03-18T06:48:41.902Z,99304.81
2023-03-18T06:51:08.865Z,99313.06
2023-03-18T06:53:36.653Z,99315.41
2023-03-18T06:56:06.521Z,99317.34
2023-03-18T06:58:34.387Z,99312.81
2023-03-18T07:03:28.364Z,99321.56
2023-03-18T07:05:56.167Z,99324.06
2023-03-18T07:08:23.488Z,99321.66
2023-03-18T07:10:54.333Z,99321.88
2023-03-18T07:13:22.023Z,99332.41
2023-03-18T07:15:48.891Z,99336.34
2023-03-18T07:18:19.145Z,99337.81
2023-03-18T07:20:46.740Z,99340.13
2023-03-18T07:23:13.720Z,99345.03
2023-03-18T07:25:40.412Z,99336.56
2023-03-18T07:28:07.158Z,99340.38
2023-03-18T07:30:34.560Z,99344.69
2023-03-18T07:35:28.730Z,99338.28
2023-03-18T07:37:55.515Z,99339.09
2023-03-18T07:40:22.323Z,99340.28
2023-03-18T07:42:52.014Z,99337.19
2023-03-18T07:45:18.716Z,99334.84
2023-03-18T07:47:47.268Z,99338.97
2023-03-18T07:50:14.268Z,99341.44
2023-03-18T07:52:41.316Z,99338.16
2023-03-18T07:55:09.359Z,99343.41
2023-03-18T07:57:36.822Z,99336.97
2023-03-18T08:00:09.105Z,99345.19
2023-03-18T08:02:39.547Z,99347.25
2023-03-18T08:07:39.890Z,99351.16
2023-03-18T08:10:07.302Z,99351.03
2023-03-18T08:12:49.416Z,99350.19
2023-03-18T08:15:18.768Z,99355.13
2023-03-18T08:17:45.417Z,99350.06
2023-03-18T08:20:12.636Z,99346.69
2023-03-18T08:22:39.623Z,99354.81
2023-03-18T08:25:07.041Z,99355.72
2023-03-18T08:27:33.789Z,99347.78
2023-03-18T08:30:03.054Z,99350.47
2023-03-18T08:32:28.143Z,99343.88
2023-03-18T08:34:54.839Z,99340.28
2023-03-18T08:37:21.539Z,99344.47
2023-03-18T08:39:48.266Z,99337.84
2023-03-18T08:42:17.691Z,99345.75
2023-03-18T08:44:44.397Z,99339.56
2023-03-18T08:47:11.507Z,99343.75
2023-03-18T08:49:38.988Z,99339.13
2023-03-18T08:52:06.980Z,99342.03
2023-03-18T08:54:33.842Z,99328.53
2023-03-18T08:57:00.879Z,99330.16
2023-03-18T08:59:27.794Z,99332.75
2023-03-18T09:01:57.978Z,99335.22
2023-03-18T09:04:26.146Z,99329.94
2023-03-18T09:06:52.888Z,99338.34
2023-03-18T09:09:20.669Z,99341.94
2023-03-18T09:11:48.388Z,99338.50
2023-03-18T09:14:15.312Z,99343.09
2023-03-18T09:16:42.152Z,99335.03
2023-03-18T09:19:08.901Z,99340.88
2023-03-18T09:21:36.151Z,99337.53
2023-03-18T09:24:02.915Z,99335.25
2023-03-18T09:26:29.589Z,99329.53
2023-03-18T09:28:56.786Z,99338.03
2023-03-18T09:31:23.732Z,99335.69
2023-03-18T09:33:50.609Z,99328.66
2023-03-18T09:36:18.326Z,99330.69
2023-03-18T09:38:47.659Z,99330.56
2023-03-18T09:41:49.152Z,99335.97
2023-03-18T09:44:25.963Z,99330.50
2023-03-18T09:47:03.749Z,99331.06
2023-03-18T09:49:55.418Z,99327.56
2023-03-18T09:52:27.365Z,99320.50
2023-03-18T09:55:02.630Z,99329.09
2023-03-18T09:57:33.803Z,99320.69
2023-03-18T10:00:02.990Z,99321.69
2023-03-18T10:02:47.849Z,99322.06
2023-03-18T10:05:19.934Z,99326.56
2023-03-18T10:07:50.439Z,99322.31
2023-03-18T10:10:22.380Z,99324.22
2023-03-18T10:12:55.574Z,99316.41
2023-03-18T10:15:31.592Z,99324.88
2023-03-18T10:18:02.632Z,99316.31
2023-03-18T10:21:01.225Z,99312.31
2023-03-18T10:23:44.086Z,99315.34
2023-03-18T10:26:24.424Z,99319.34
2023-03-18T10:29:00.685Z,99321.59
2023-03-18T10:31:34.195Z,99313.94
2023-03-18T10:34:04.572Z,99313.91
2023-03-18T10:36:55.901Z,99317.72
2023-03-18T10:39:25.157Z,99316.13
2023-03-18T10:41:54.653Z,99311.47
2023-03-18T10:44:33.802Z,99309.84
2023-03-18T10:47:04.014Z,99314.97
2023-03-18T10:49:37.193Z,99314.50
2023-03-18T10:52:34.307Z,99313.81
2023-03-18T10:57:27.995Z,99303.69
2023-03-18T10:59:54.870Z,99308.28
2023-03-18T11:02:38.992Z,99291.88
2023-03-18T11:05:23.760Z,99299.59
2023-03-18T11:10:32.567Z,99294.84
2023-03-18T11:15:29.168Z,99283.78
2023-03-18T11:18:03.626Z,99287.88
2023-03-18T11:20:47.721Z,99285.84
2023-03-18T11:23:56.606Z,99283.34
2023-03-18T11:26:28.941Z,99285.31
2023-03-18T11:29:02.794Z,99277.19
2023-03-18T11:31:32.182Z,99283.59
2023-03-18T11:33:59.702Z,99283.34
2023-03-18T11:36:28.579Z,99276.47
2023-03-18T11:39:03.633Z,99285.81
2023-03-18T11:41:30.389Z,99276.16
2023-03-18T11:44:02.728Z,99274.16
2023-03-18T11:46:53.782Z,99273.59
2023-03-18T11:49:24.450Z,99264.19
2023-03-18T11:54:53.967Z,99250.53
2023-03-18T11:57:36.014Z,99257.16
2023-03-18T12:00:03.634Z,99248.22
2023-03-18T12:02:54.365Z,99235.69
2023-03-18T12:05:28.965Z,99232.72
2023-03-18T12:08:03.765Z,99239.09
2023-03-18T12:10:36.480Z,99234.16
2023-03-18T12:13:18.072Z,99239.81
2023-03-18T12:18:30.917Z,99239.72
2023-03-18T12:21:06.756Z,99242.38
2023-03-18T12:24:03.660Z,99239.16
2023-03-18T12:26:40.663Z,99239.59
2023-03-18T12:29:36.152Z,99233.31
2023-03-18T12:32:03.831Z,99222.56
2023-03-18T12:34:58.635Z,99225.44
2023-03-18T12:38:04.046Z,99227.31
2023-03-18T12:43:57.801Z,99230.31
2023-03-18T12:46:50.827Z,99228.75
2023-03-18T12:49:24.017Z,99214.06
2023-03-18T12:52:06.736Z,99215.91
2023-03-18T12:54:40.625Z,99223.59
2023-03-18T12:57:45.299Z,99215.09
2023-03-18T13:00:36.560Z,99213.75
2023-03-18T13:03:18.666Z,99211.38
2023-03-18T13:06:04.852Z,99215.44
2023-03-18T13:08:47.261Z,99219.72
2023-03-18T13:11:44.884Z,99214.75
2023-03-18T13:14:11.555Z,99218.50
2023-03-18T13:16:39.134Z,99206.19
2023-03-18T13:19:06.665Z,99213.94
2023-03-18T13:21:43.310Z,99204.25
2023-03-18T13:24:30.940Z,99209.09
2023-03-18T13:27:04.037Z,99205.28
2023-03-18T13:29:47.274Z,99198.91
2023-03-18T13:32:32.777Z,99201.59
2023-03-18T13:35:02.776Z,99192.91
2023-03-18T13:38:03.776Z,99195.19
2023-03-18T13:40:53.620Z,99195.91
2023-03-18T13:43:26.065Z,99185.09
2023-03-18T13:45:57.746Z,99196.69
2023-03-18T13:48:35.212Z,99178.38
2023-03-18T13:51:03.781Z,99182.34
2023-03-18T13:53:34.693Z,99180.56
2023-03-18T13:56:03.884Z,99184.91
2023-03-18T13:58:45.634Z,99171.88
2023-03-18T14:01:36.520Z,99166.09
2023-03-18T14:04:46.129Z,99169.00
2023-03-18T14:07:18.682Z,99171.44
2023-03-18T14:10:18.004Z,99179.38
2023-03-18T14:12:52.980Z,99168.69
2023-03-18T14:15:39.897Z,99169.09
2023-03-18T14:18:20.179Z,99166.75
2023-03-18T14:20:54.182Z,99164.94
2023-03-18T14:23:24.418Z,99164.72
2023-03-18T14:28:30.506Z,99170.72
2023-03-18T14:31:00.740Z,99174.44
2023-03-18T14:33:33.650Z,99175.78
2023-03-18T14:36:11.197Z,99167.00
2023-03-18T14:38:56.976Z,99165.28
2023-03-18T14:41:29.327Z,99159.78
2023-03-18T14:44:03.748Z,99163.38
2023-03-18T14:46:37.018Z,99156.47
2023-03-18T14:49:34.259Z,99149.47
2023-03-18T14:52:04.666Z,99158.09
2023-03-18T14:54:40.867Z,99149.97
2023-03-18T14:57:07.860Z,99156.97
2023-03-18T14:59:34.805Z,99154.13
2023-03-18T15:02:04.452Z,99150.41
2023-03-18T15:04:32.057Z,99161.78
2023-03-18T15:07:05.655Z,99161.38
2023-03-18T15:09:36.475Z,99154.94
2023-03-18T15:12:20.581Z,99159.84
2023-03-18T15:14:50.687Z,99154.97
2023-03-18T15:17:17.892Z,99152.56
2023-03-18T15:19:46.672Z,99157.47
2023-03-18T15:22:21.561Z,99147.72
2023-03-18T15:24:48.738Z,99142.81
2023-03-18T15:27:20.724Z,99146.50
2023-03-18T15:29:58.768Z,99143.06
2023-03-18T15:32:28.636Z,99145.50
2023-03-18T15:35:02.853Z,99140.94
2023-03-18T15:37:40.507Z,99148.63
2023-03-18T15:40:30.365Z,99147.16
2023-03-18T15:43:07.228Z,99148.13
2023-03-18T15:45:34.665Z,99150.47
2023-03-18T15:48:02.852Z,99150.50
2023-03-18T15:50:33.762Z,99152.31
2023-03-18T15:53:03.788Z,99152.16
2023-03-18T15:55:34.219Z,99156.19
2023-03-18T15:58:03.845Z,99153.00
2023-03-18T16:00:32.844Z,99151.84
2023-03-18T16:02:59.928Z,99151.50
2023-03-18T16:05:29.276Z,99153.69
2023-03-18T16:07:56.189Z,99148.19
2023-03-18T16:10:26.596Z,99149.44
2023-03-18T16:12:58.157Z,99149.50
2023-03-18T16:15:28.389Z,99144.66
2023-03-18T16:17:56.618Z,99135.50
2023-03-18T16:20:27.814Z,99143.34
2023-03-18T16:22:55.679Z,99146.63
2023-03-18T16:25:24.700Z,99140.88
2023-03-18T16:27:57.456Z,99143.13
2023-03-18T16:30:27.962Z,99136.84
2023-03-18T16:35:34.867Z,99144.03
2023-03-18T16:40:30.976Z,99147.03
2023-03-18T16:42:58.267Z,99150.84
2023-03-18T16:45:30.827Z,99148.13
2023-03-18T16:48:03.879Z,99153.03
2023-03-18T16:50:34.683Z,99152.47
2023-03-18T16:55:30.348Z,99158.97
2023-03-18T16:57:59.909Z,99147.81
2023-03-18T17:00:33.066Z,99157.38
2023-03-18T17:05:29.240Z,99153.47
2023-03-18T17:07:56.190Z,99155.91
2023-03-18T17:10:26.045Z,99158.91
2023-03-18T17:12:59.697Z,99163.72
2023-03-18T17:15:32.098Z,99158.81
2023-03-18T17:18:00.052Z,99167.00
2023-03-18T17:20:30.683Z,99168.56
2023-03-18T17:22:58.722Z,99166.31
2023-03-18T17:25:28.304Z,99169.53
2023-03-18T17:27:56.696Z,99166.19
2023-03-18T17:30:31.415Z,99169.38
2023-03-18T17:32:58.502Z,99173.13
2023-03-18T17:35:26.153Z,99167.63
2023-03-18T17:37:54.144Z,99176.78
2023-03-18T17:40:23.371Z,99179.66
2023-03-18T17:42:53.378Z,99183.09
2023-03-18T17:45:35.309Z,99189.75
2023-03-18T17:48:03.854Z,99189.94
2023-03-18T17:50:30.664Z,99198.72
2023-03-18T17:52:58.342Z,99191.91
2023-03-18T17:55:26.501Z,99194.44
2023-03-18T17:57:53.250Z,99197.81
2023-03-18T18:00:24.496Z,99200.59
2023-03-18T18:02:54.889Z,99203.22
2023-03-18T18:05:23.701Z,99199.66
2023-03-18T18:07:51.610Z,99195.72
2023-03-18T18:10:20.963Z,99204.19
2023-03-18T18:12:49.777Z,99200.47
2023-03-18T18:15:20.007Z,99207.97
2023-03-18T18:17:48.639Z,99200.34
2023-03-18T18:20:19.020Z,99203.03
2023-03-18T18:22:51.462Z,99204.66
2023-03-18T18:25:21.955Z,99197.72
2023-03-18T18:27:49.791Z,99206.19
2023-03-18T18:30:18.769Z,99201.63
2023-03-18T18:32:49.975Z,99200.16
2023-03-18T18:35:19.278Z,99199.47
2023-03-18T18:37:47.758Z,99213.41
2023-03-18T18:40:16.598Z,99208.47
2023-03-18T18:42:44.067Z,99209.28
2023-03-18T18:45:18.354Z,99221.09
2023-03-18T18:47:45.556Z,99215.16
2023-03-18T18:50:21.906Z,99217.16
2023-03-18T18:52:49.026Z,99212.69
2023-03-18T18:55:15.832Z,99201.25
2023-03-18T18:57:42.988Z,99206.66
2023-03-18T19:00:22.247Z,99205.72
2023-03-18T19:02:56.579Z,99208.31
2023-03-18T19:05:23.965Z,99208.09
2023-03-18T19:07:50.719Z,99202.59
2023-03-18T19:10:18.433Z,99203.09
2023-03-18T19:12:45.788Z,99201.84
2023-03-18T19:15:15.393Z,99201.38
2023-03-18T19:17:43.565Z,99203.22
2023-03-18T19:20:30.962Z,99209.94
2023-03-18T19:23:01.142Z,99205.31
2023-03-18T19:25:27.885Z,99212.25
2023-03-18T19:27:55.061Z,99211.13
2023-03-18T19:30:24.118Z,99218.03
2023-03-18T19:32:51.483Z,99221.28
2023-03-18T19:35:18.275Z,99220.59
2023-03-18T19:37:47.424Z,99224.38
2023-03-18T19:40:20.533Z,99227.81
2023-03-18T19:42:47.256Z,99227.53
2023-03-18T19:45:14.233Z,99227.56
2023-03-18T19:47:42.227Z,99225.47
2023-03-18T19:50:17.505Z,99232.34
2023-03-18T19:52:46.378Z,99232.13
2023-03-18T19:55:15.890Z,99236.00
2023-03-18T19:57:48.795Z,99230.91
2023-03-18T20:00:24.321Z,99229.84
2023-03-18T20:02:51.513Z,99232.69
2023-03-18T20:05:21.104Z,99234.81
2023-03-18T20:07:50.237Z,99234.88
2023-03-18T20:10:19.327Z,99236.91
2023-03-18T20:12:48.549Z,99241.88
2023-03-18T20:15:23.557Z,99245.13
2023-03-18T20:17:51.711Z,99247.31
2023-03-18T20:20:20.900Z,99249.34
2023-03-18T20:22:59.690Z,99245.06
2023-03-18T20:25:35.894Z,99250.63
2023-03-18T20:28:03.995Z,99253.66
2023-03-18T20:30:35.519Z,99255.31
2023-03-18T20:33:04.131Z,99251.41
2023-03-18T20:35:34.408Z,99250.09
2023-03-18T20:38:03.067Z,99257.63
2023-03-18T20:40:31.436Z,99247.66
2023-03-18T20:42:58.676Z,99255.91
2023-03-18T20:45:27.026Z,99246.44
2023-03-18T20:47:53.782Z,99252.16
2023-03-18T20:50:26.765Z,99247.44
2023-03-18T20:52:53.528Z,99255.78
2023-03-18T20:55:29.432Z,99259.50
2023-03-18T20:57:56.824Z,99269.84
2023-03-18T21:00:26.268Z,99270.38
2023-03-18T21:02:56.499Z,99273.09
2023-03-18T21:05:25.287Z,99275.78
2023-03-18T21:07:53.316Z,99273.84
2023-03-18T21:10:22.899Z,99276.69
2023-03-18T21:12:50.156Z,99280.69
2023-03-18T21:15:25.157Z,99272.88
2023-03-18T21:17:51.866Z,99271.22
2023-03-18T21:20:22.885Z,99272.31
2023-03-18T21:22:51.570Z,99272.56
2023-03-18T21:25:21.357Z,99274.59
2023-03-18T21:27:48.624Z,99271.03
2023-03-18T21:30:17.620Z,99274.78
2023-03-18T21:32:45.308Z,99282.94
2023-03-18T21:35:18.374Z,99275.47
2023-03-18T21:37:45.566Z,99285.09
2023-03-18T21:40:21.889Z,99280.22
2023-03-18T21:42:52.643Z,99285.41
2023-03-18T21:45:22.996Z,99279.81
2023-03-18T21:47:53.017Z,99281.91
2023-03-18T21:50:22.212Z,99289.34
2023-03-18T21:52:49.486Z,99285.69
2023-03-18T21:55:17.466Z,99286.13
2023-03-18T21:57:45.830Z,99293.91
2023-03-18T22:00:22.490Z,99290.25
2023-03-18T22:02:50.770Z,99287.31
2023-03-18T22:05:21.092Z,99277.25
2023-03-18T22:07:48.431Z,99278.69
2023-03-18T22:10:17.794Z,99277.88
2023-03-18T22:12:44.536Z,99273.78
2023-03-18T22:15:33.899Z,99274.16
2023-03-18T22:18:00.784Z,99281.56
2023-03-18T22:20:27.852Z,99277.47
2023-03-18T22:22:54.836Z,99282.28
2023-03-18T22:25:28.108Z,99280.41
2023-03-18T22:27:54.856Z,99280.81
2023-03-18T22:30:22.563Z,99271.31
2023-03-18T22:32:49.430Z,99271.75
2023-03-18T22:35:21.937Z,99279.19
2023-03-18T22:37:49.306Z,99278.75
2023-03-18T22:40:27.503Z,99274.63
2023-03-18T22:42:56.759Z,99276.28
2023-03-18T22:45:26.000Z,99279.56
2023-03-18T22:47:55.927Z,99281.25
2023-03-18T22:50:24.978Z,99276.06
2023-03-18T22:52:58.026Z,99284.53
2023-03-18T22:55:27.134Z,99280.00
2023-03-18T22:57:53.932Z,99279.59
2023-03-18T23:00:30.929Z,99283.91
2023-03-18T23:02:58.841Z,99292.19
2023-03-18T23:05:26.174Z,99287.47
2023-03-18T23:07:54.017Z,99287.06
2023-03-18T23:10:21.130Z,99284.78
2023-03-18T23:12:48.688Z,99289.53
2023-03-18T23:15:18.226Z,99291.81
2023-03-18T23:17:46.098Z,99286.03
2023-03-18T23:20:15.864Z,99288.91
2023-03-18T23:22:43.907Z,99286.03
2023-03-18T23:25:16.332Z,99290.16
2023-03-18T23:27:43.070Z,99301.50
2023-03-18T23:30:11.307Z,99314.06
2023-03-18T23:32:39.403Z,99305.81
2023-03-18T23:35:07.457Z,99313.44
2023-03-18T23:37:34.346Z,99307.69
2023-03-18T23:40:01.420Z,99303.13
2023-03-18T23:42:31.293Z,99304.78
2023-03-18T23:44:57.983Z,99312.63
2023-03-18T23:47:24.630Z,99312.00
2023-03-18T23:49:51.510Z,99315.09
2023-03-18T23:52:18.325Z,99316.50
2023-03-18T23:54:45.045Z,99317.13
2023-03-18T23:57:12.060Z,99320.59
2023-03-18T23:59:39.158Z,99322.66
